KWVL/WVL METAR and TAF weather

Enter ICAO airport designator
Station Type Date Time Source
KWVL METAR 2022/11/26 08:56 UTC NOAA

KWVL 260856Z AUTO 33012G21KT 10SM OVC039 03/M04 A2969 RMK AO2 PK WND 31029/0835 SLP082 T00281044 53027


Station Type Date Time Source
KWVL Decoded METAR 2022/11/26 08:56 UTC NOAA

Waterville, Waterville Robert LaFleur Airport, ME, United States (KWVL) 44-32N 069-41W
Nov 26, 2022 - 03:56 AM EST / 2022.11.26 0856 UTC
Wind: from the NNW (330 degrees) at 14 MPH (12 KT) gusting to 24 MPH (21 KT):0
Visibility: 10 mile(s):0
Sky conditions: overcast
Temperature: 37.0 F (2.8 C)
Dew Point: 24.1 F (-4.4 C)
Relative Humidity: 59%
Pressure (altimeter): 29.69 in. Hg (1005 hPa)
Pressure tendency: 0.08 inches (2.7 hPa) higher than three hours ago
ob: KWVL 260856Z AUTO 33012G21KT 10SM OVC039 03/M04 A2969 RMK AO2 PK WND 31029/0835 SLP082 T00281044 53027
cycle: 9

Station Type Date Time Source
KWVL TAF UTC NOAA

Error!

Example: see airport list